createdAt,value
2023-03-04T00:00:06.569Z,20.05
2023-03-04T00:02:37.066Z,21.38
2023-03-04T00:05:04.117Z,23.70
2023-03-04T00:07:30.810Z,20.98
2023-03-04T00:09:57.617Z,24.08
2023-03-04T00:12:24.262Z,26.65
2023-03-04T00:14:51.009Z,25.05
2023-03-04T00:17:17.663Z,23.70
2023-03-04T00:19:44.296Z,22.17
2023-03-04T00:22:11.073Z,20.25
2023-03-04T00:24:37.703Z,25.63
2023-03-04T00:27:04.413Z,25.63
2023-03-04T00:29:30.999Z,21.27
2023-03-04T00:31:57.766Z,21.65
2023-03-04T00:34:24.573Z,23.15
2023-03-04T00:36:51.704Z,23.92
2023-03-04T00:39:18.278Z,19.35
2023-03-04T00:41:44.933Z,19.90
2023-03-04T00:44:12.880Z,21.38
2023-03-04T00:46:39.438Z,22.33
2023-03-04T00:49:06.024Z,23.67
2023-03-04T00:51:32.797Z,26.05
2023-03-04T00:54:00.937Z,28.50
2023-03-04T00:56:28.602Z,28.42
2023-03-04T00:58:55.822Z,27.42
2023-03-04T01:01:22.718Z,25.13
2023-03-04T01:03:49.622Z,27.25
2023-03-04T01:06:16.362Z,31.60
2023-03-04T01:08:44.605Z,31.30
2023-03-04T01:11:11.260Z,31.85
2023-03-04T01:13:38.178Z,29.17
2023-03-04T01:16:05.181Z,31.27
2023-03-04T01:18:32.380Z,33.33
2023-03-04T01:20:59.641Z,31.48
2023-03-04T01:23:26.336Z,31.13
2023-03-04T01:25:53.362Z,30.30
2023-03-04T01:28:20.058Z,25.98
2023-03-04T01:30:47.996Z,30.60
2023-03-04T01:33:14.889Z,27.38
2023-03-04T01:35:42.511Z,23.60
2023-03-04T01:38:09.160Z,27.73
2023-03-04T01:40:36.952Z,29.17
2023-03-04T01:43:03.782Z,24.42
2023-03-04T01:45:32.455Z,26.38
2023-03-04T01:47:59.139Z,27.25
2023-03-04T01:50:33.845Z,25.85
2023-03-04T01:53:01.748Z,29.00
2023-03-04T01:55:29.483Z,25.98
2023-03-04T01:57:56.324Z,28.23
2023-03-04T02:00:43.826Z,26.63
2023-03-04T02:03:15.172Z,22.70
2023-03-04T02:05:45.835Z,21.65
2023-03-04T02:08:15.348Z,26.33
2023-03-04T02:10:43.508Z,24.50
2023-03-04T02:13:13.096Z,25.70
2023-03-04T02:15:39.997Z,26.33
2023-03-04T02:18:25.541Z,22.45
2023-03-04T02:21:14.446Z,24.48
2023-03-04T02:23:48.052Z,26.05
2023-03-04T02:26:17.524Z,27.65
2023-03-04T02:28:48.432Z,24.80
2023-03-04T02:31:24.110Z,25.60
2023-03-04T02:33:52.748Z,24.30
2023-03-04T02:36:21.077Z,25.98
2023-03-04T02:38:51.329Z,22.23
2023-03-04T02:41:21.034Z,23.05
2023-03-04T02:43:52.270Z,23.00
2023-03-04T02:46:19.488Z,22.70
2023-03-04T02:48:47.213Z,21.77
2023-03-04T02:51:13.883Z,23.42
2023-03-04T02:53:40.768Z,19.15
2023-03-04T02:56:07.743Z,20.02
2023-03-04T02:58:36.739Z,20.77
2023-03-04T03:01:03.610Z,20.10
2023-03-04T03:03:30.350Z,18.23
2023-03-04T03:05:57.050Z,18.23
2023-03-04T03:08:25.477Z,21.35
2023-03-04T03:15:50.052Z,16.23
2023-03-04T03:18:16.910Z,17.05
2023-03-04T03:20:43.522Z,16.63
2023-03-04T03:23:10.313Z,18.33
2023-03-04T03:25:36.940Z,19.63
2023-03-04T03:28:05.680Z,19.02
2023-03-04T03:30:32.329Z,18.85
2023-03-04T03:32:58.904Z,16.05
2023-03-04T03:35:25.661Z,19.90
2023-03-04T03:37:52.334Z,18.20
2023-03-04T03:40:18.965Z,19.30
2023-03-04T03:42:45.603Z,21.08
2023-03-04T03:45:12.299Z,19.75
2023-03-04T03:47:38.903Z,18.80
2023-03-04T03:50:06.030Z,18.45
2023-03-04T03:52:32.644Z,15.60
2023-03-04T03:55:01.659Z,19.17
2023-03-04T03:57:29.753Z,19.40
2023-03-04T03:59:57.008Z,19.63
2023-03-04T04:02:25.672Z,19.63
2023-03-04T04:04:54.141Z,19.35
2023-03-04T04:07:20.732Z,20.83
2023-03-04T04:09:47.400Z,18.63
2023-03-04T04:12:18.810Z,17.92
2023-03-04T04:14:45.714Z,17.77
2023-03-04T04:17:13.023Z,18.85
2023-03-04T04:19:41.041Z,17.58
2023-03-04T04:24:35.274Z,18.40
2023-03-04T04:27:02.148Z,18.55
2023-03-04T04:29:29.142Z,17.87
2023-03-04T04:31:55.947Z,19.05
2023-03-04T04:34:22.677Z,16.85
2023-03-04T04:36:49.578Z,17.13
2023-03-04T04:39:16.218Z,16.73
2023-03-04T04:41:44.988Z,18.33
2023-03-04T04:44:13.156Z,18.55
2023-03-04T04:46:40.263Z,17.30
2023-03-04T04:49:07.825Z,16.93
2023-03-04T04:51:37.077Z,17.05
2023-03-04T04:54:04.500Z,16.63
2023-03-04T04:56:31.550Z,16.20
2023-03-04T04:59:00.536Z,17.23
2023-03-04T05:01:27.759Z,15.60
2023-03-04T05:03:54.710Z,15.27
2023-03-04T05:06:24.157Z,16.00
2023-03-04T05:08:51.628Z,16.70
2023-03-04T05:11:19.313Z,15.18
2023-03-04T05:13:46.690Z,18.60
2023-03-04T05:16:13.440Z,16.80
2023-03-04T05:18:40.440Z,15.85
2023-03-04T05:21:07.188Z,15.15
2023-03-04T05:23:36.845Z,15.63
2023-03-04T05:26:04.722Z,18.67
2023-03-04T05:28:31.592Z,17.20
2023-03-04T05:30:58.422Z,16.40
2023-03-04T05:33:25.110Z,16.23
2023-03-04T05:35:52.228Z,15.80
2023-03-04T05:38:22.801Z,17.73
2023-03-04T05:41:03.688Z,16.23
2023-03-04T05:43:32.136Z,16.73
2023-03-04T05:46:05.436Z,16.40
2023-03-04T05:48:49.735Z,15.48
2023-03-04T05:51:16.392Z,18.17
2023-03-04T05:56:31.287Z,15.73
2023-03-04T05:58:58.373Z,13.70
2023-03-04T06:01:25.798Z,15.80
2023-03-04T06:03:53.106Z,17.65
2023-03-04T06:06:20.318Z,15.70
2023-03-04T06:08:49.770Z,16.23
2023-03-04T06:11:16.657Z,18.02
2023-03-04T06:13:43.392Z,16.05
2023-03-04T06:16:15.812Z,16.33
2023-03-04T06:18:44.820Z,17.55
2023-03-04T06:21:11.974Z,16.02
2023-03-04T06:23:39.273Z,15.68
2023-03-04T06:26:09.427Z,14.02
2023-03-04T06:28:36.112Z,15.73
2023-03-04T06:31:02.900Z,16.05
2023-03-04T06:33:29.503Z,15.05
2023-03-04T06:35:57.337Z,14.68
2023-03-04T06:38:25.369Z,15.55
2023-03-04T06:40:52.282Z,15.05
2023-03-04T06:43:19.744Z,16.45
2023-03-04T06:45:46.658Z,15.00
2023-03-04T06:48:13.427Z,17.48
2023-03-04T06:50:40.612Z,18.90
2023-03-04T06:53:07.305Z,16.40
2023-03-04T06:55:34.016Z,15.98
2023-03-04T06:58:00.699Z,20.80
2023-03-04T07:00:27.592Z,20.02
2023-03-04T07:02:55.396Z,16.58
2023-03-04T07:05:22.020Z,17.45
2023-03-04T07:07:48.858Z,19.15
2023-03-04T07:10:15.429Z,20.48
2023-03-04T07:12:42.134Z,18.90
2023-03-04T07:15:09.656Z,19.60
2023-03-04T07:17:36.591Z,20.08
2023-03-04T07:20:03.896Z,20.08
2023-03-04T07:22:33.122Z,17.40
2023-03-04T07:25:02.627Z,16.65
2023-03-04T07:27:29.356Z,18.42
2023-03-04T07:29:56.094Z,16.38
2023-03-04T07:32:23.049Z,18.95
2023-03-04T07:34:49.944Z,18.85
2023-03-04T07:37:17.036Z,16.83
2023-03-04T07:39:44.918Z,20.40
2023-03-04T07:42:11.701Z,15.20
2023-03-04T07:44:41.077Z,18.50
2023-03-04T07:47:07.680Z,16.60
2023-03-04T07:49:34.344Z,18.20
2023-03-04T07:52:04.704Z,20.65
2023-03-04T07:54:32.937Z,17.70
2023-03-04T07:56:59.893Z,18.75
2023-03-04T07:59:26.672Z,16.33
2023-03-04T08:01:53.344Z,21.00
2023-03-04T08:04:20.121Z,21.30
2023-03-04T08:06:47.042Z,18.63
2023-03-04T08:09:14.203Z,18.67
2023-03-04T08:11:42.105Z,19.30
2023-03-04T08:14:12.086Z,21.38
2023-03-04T08:16:40.288Z,20.40
2023-03-04T08:19:07.938Z,21.08
2023-03-04T08:21:35.702Z,19.88
2023-03-04T08:24:03.494Z,20.10
2023-03-04T08:26:33.635Z,22.02
2023-03-04T08:29:02.367Z,24.40
2023-03-04T08:31:31.482Z,22.75
2023-03-04T08:33:58.227Z,21.63
2023-03-04T08:36:27.408Z,21.15
2023-03-04T08:38:54.498Z,22.52
2023-03-04T08:41:22.450Z,23.40
2023-03-04T08:43:49.200Z,23.77
2023-03-04T08:46:16.107Z,24.00
2023-03-04T08:48:43.052Z,22.38
2023-03-04T08:51:17.399Z,23.08
2023-03-04T08:53:45.025Z,24.73
2023-03-04T08:56:13.524Z,23.10
2023-03-04T08:58:40.627Z,22.85
2023-03-04T09:01:12.528Z,23.13
2023-03-04T09:03:40.226Z,24.25
2023-03-04T09:06:08.777Z,25.10
2023-03-04T09:08:35.621Z,22.75
2023-03-04T09:11:02.680Z,21.65
2023-03-04T09:13:31.239Z,18.70
2023-03-04T09:15:58.935Z,21.42
2023-03-04T09:18:28.766Z,21.02
2023-03-04T09:20:55.662Z,21.15
2023-03-04T09:23:23.037Z,22.05
2023-03-04T09:25:49.844Z,22.17
2023-03-04T09:28:18.485Z,19.73
2023-03-04T09:30:50.244Z,22.33
2023-03-04T09:33:17.532Z,30.30
2023-03-04T09:35:44.381Z,26.65
2023-03-04T09:38:11.228Z,21.17
2023-03-04T09:40:38.031Z,17.40
2023-03-04T09:43:07.012Z,20.00
2023-03-04T09:45:47.195Z,20.20
2023-03-04T09:48:18.075Z,20.45
2023-03-04T09:51:18.050Z,21.17
2023-03-04T09:54:23.095Z,23.27
2023-03-04T09:56:56.930Z,19.70
2023-03-04T09:59:41.528Z,17.67
2023-03-04T10:02:28.161Z,21.05
2023-03-04T10:05:00.874Z,18.98
2023-03-04T10:07:35.406Z,21.13
2023-03-04T10:10:07.205Z,18.48
2023-03-04T10:12:38.413Z,19.33
2023-03-04T10:15:17.230Z,20.08
2023-03-04T10:17:48.788Z,18.98
2023-03-04T10:20:26.354Z,18.42
2023-03-04T10:22:59.940Z,17.83
2023-03-04T10:25:32.843Z,22.08
2023-03-04T10:28:04.887Z,19.25
2023-03-04T10:30:57.076Z,17.15
2023-03-04T10:33:30.256Z,21.00
2023-03-04T10:36:01.973Z,22.85
2023-03-04T10:38:35.758Z,22.85
2023-03-04T10:41:16.073Z,22.60
2023-03-04T10:43:43.808Z,21.58
2023-03-04T10:46:12.005Z,17.02
2023-03-04T10:48:43.193Z,21.00
2023-03-04T10:51:22.408Z,19.67
2023-03-04T10:53:53.121Z,18.55
2023-03-04T10:56:42.682Z,22.05
2023-03-04T10:59:35.023Z,20.70
2023-03-04T11:02:14.580Z,17.50
2023-03-04T11:04:41.285Z,16.42
2023-03-04T11:07:11.534Z,19.48
2023-03-04T11:09:38.381Z,18.80
2023-03-04T11:12:11.969Z,20.13
2023-03-04T11:14:58.959Z,20.63
2023-03-04T11:17:28.172Z,18.52
2023-03-04T11:20:06.014Z,17.67
2023-03-04T11:25:05.934Z,18.40
2023-03-04T11:27:33.563Z,22.27
2023-03-04T11:30:29.145Z,19.35
2023-03-04T11:33:08.801Z,20.38
2023-03-04T11:35:44.025Z,20.60
2023-03-04T11:38:24.690Z,21.45
2023-03-04T11:40:58.743Z,19.00
2023-03-04T11:43:34.863Z,18.65
2023-03-04T11:46:24.221Z,20.75
2023-03-04T11:49:14.686Z,20.55
2023-03-04T11:51:46.575Z,19.38
2023-03-04T11:54:23.553Z,20.20
2023-03-04T11:57:04.661Z,18.38
2023-03-04T12:00:15.843Z,20.73
2023-03-04T12:02:54.637Z,17.52
2023-03-04T12:05:29.894Z,22.65
2023-03-04T12:08:21.731Z,21.38
2023-03-04T12:11:00.103Z,25.08
2023-03-04T12:13:39.645Z,23.20
2023-03-04T12:16:19.267Z,20.90
2023-03-04T12:18:56.560Z,19.88
2023-03-04T12:21:41.934Z,19.27
2023-03-04T12:24:21.368Z,19.85
2023-03-04T12:27:01.284Z,18.45
2023-03-04T12:29:36.582Z,20.25
2023-03-04T12:32:22.532Z,18.95
2023-03-04T12:35:27.331Z,19.05
2023-03-04T12:38:18.671Z,17.85
2023-03-04T12:40:53.755Z,19.55
2023-03-04T12:43:47.928Z,19.73
2023-03-04T12:46:22.222Z,20.23
2023-03-04T12:49:09.828Z,20.13
2023-03-04T12:51:50.985Z,16.27
2023-03-04T12:54:27.757Z,19.75
2023-03-04T12:57:26.987Z,18.65
2023-03-04T13:00:23.119Z,22.55
2023-03-04T13:02:58.587Z,18.20
2023-03-04T13:06:05.876Z,18.83
2023-03-04T13:08:44.124Z,18.20
2023-03-04T13:11:31.008Z,20.05
2023-03-04T13:14:13.623Z,19.38
2023-03-04T13:17:01.348Z,16.83
2023-03-04T13:19:57.350Z,16.23
2023-03-04T13:22:39.159Z,17.35
2023-03-04T13:25:27.508Z,14.38
2023-03-04T13:28:00.538Z,14.05
2023-03-04T13:33:14.082Z,12.77
2023-03-04T13:35:46.725Z,12.60
2023-03-04T13:38:28.732Z,11.88
2023-03-04T13:41:13.856Z,12.15
2023-03-04T13:43:44.599Z,12.77
2023-03-04T13:46:21.331Z,13.45
2023-03-04T13:48:51.264Z,12.65
2023-03-04T13:51:28.927Z,12.82
2023-03-04T13:54:08.170Z,12.65
2023-03-04T13:57:00.853Z,12.18
2023-03-04T13:59:29.698Z,13.90
2023-03-04T14:02:10.465Z,12.38
2023-03-04T14:04:39.114Z,13.30
2023-03-04T14:07:20.715Z,12.68
2023-03-04T14:10:02.662Z,12.93
2023-03-04T14:12:32.499Z,14.85
2023-03-04T14:15:04.312Z,12.55
2023-03-04T14:17:36.529Z,13.38
2023-03-04T14:20:05.896Z,12.80
2023-03-04T14:22:39.084Z,13.43
2023-03-04T14:25:14.701Z,13.23
2023-03-04T14:27:41.484Z,12.77
2023-03-04T14:30:40.791Z,14.30
2023-03-04T14:33:15.978Z,18.13
2023-03-04T14:35:48.002Z,14.23
2023-03-04T14:38:25.940Z,12.70
2023-03-04T14:41:05.749Z,12.57
2023-03-04T14:43:38.395Z,15.88
2023-03-04T14:46:12.380Z,14.20
2023-03-04T14:48:39.773Z,11.30
2023-03-04T14:51:06.515Z,12.63
2023-03-04T14:53:33.982Z,12.88
2023-03-04T14:56:09.217Z,13.57
2023-03-04T14:58:37.614Z,13.48
2023-03-04T15:01:20.189Z,10.75
2023-03-04T15:03:58.092Z,12.30
2023-03-04T15:06:27.200Z,12.68
2023-03-04T15:08:58.594Z,12.48
2023-03-04T15:11:32.783Z,11.80
2023-03-04T15:14:01.965Z,11.48
2023-03-04T15:16:49.254Z,10.27
2023-03-04T15:19:28.583Z,11.27
2023-03-04T15:22:06.685Z,11.38
2023-03-04T15:24:35.916Z,12.27
2023-03-04T15:27:02.842Z,11.30
2023-03-04T15:29:29.476Z,10.85
2023-03-04T15:31:56.242Z,11.95
2023-03-04T15:34:22.860Z,12.20
2023-03-04T15:36:51.086Z,12.63
2023-03-04T15:39:19.480Z,12.05
2023-03-04T15:41:46.162Z,11.73
2023-03-04T15:44:13.160Z,13.68
2023-03-04T15:46:40.255Z,10.57
2023-03-04T15:49:06.912Z,10.38
2023-03-04T15:51:33.732Z,10.82
2023-03-04T15:54:01.125Z,11.50
2023-03-04T15:56:31.114Z,13.30
2023-03-04T15:59:06.389Z,11.98
2023-03-04T16:01:33.078Z,12.70
2023-03-04T16:03:59.788Z,11.35
2023-03-04T16:06:30.682Z,10.48
2023-03-04T16:08:58.533Z,11.95
2023-03-04T16:11:30.144Z,11.45
2023-03-04T16:13:57.449Z,10.13
2023-03-04T16:16:24.235Z,11.57
2023-03-04T16:18:50.872Z,9.75
2023-03-04T16:21:20.417Z,12.38
2023-03-04T16:23:49.046Z,15.27
2023-03-04T16:26:18.517Z,13.07
2023-03-04T16:28:48.569Z,11.07
2023-03-04T16:31:15.882Z,11.30
2023-03-04T16:33:45.475Z,11.83
2023-03-04T16:36:22.223Z,14.23
2023-03-04T16:38:49.817Z,11.45
2023-03-04T16:41:17.813Z,13.20
2023-03-04T16:46:12.857Z,9.88
2023-03-04T16:48:40.364Z,12.27
2023-03-04T16:51:14.397Z,11.10
2023-03-04T16:53:43.795Z,10.57
2023-03-04T16:56:14.079Z,12.77
2023-03-04T16:58:41.803Z,10.50
2023-03-04T17:01:16.543Z,10.60
2023-03-04T17:03:43.352Z,12.05
2023-03-04T17:06:11.125Z,12.35
2023-03-04T17:08:38.072Z,13.00
2023-03-04T17:11:04.815Z,14.20
2023-03-04T17:13:31.607Z,13.05
2023-03-04T17:16:03.147Z,12.50
2023-03-04T17:18:30.367Z,11.88
2023-03-04T17:21:07.459Z,12.13
2023-03-04T17:23:35.636Z,12.65
2023-03-04T17:26:02.649Z,14.50
2023-03-04T17:28:33.117Z,10.38
2023-03-04T17:30:59.777Z,11.90
2023-03-04T17:33:26.750Z,15.23
2023-03-04T17:35:55.805Z,11.55
2023-03-04T17:38:22.444Z,14.68
2023-03-04T17:40:49.109Z,13.75
2023-03-04T17:43:15.701Z,13.45
2023-03-04T17:45:42.880Z,12.40
2023-03-04T17:48:11.717Z,10.57
2023-03-04T17:50:38.404Z,10.15
2023-03-04T17:53:05.008Z,15.90
2023-03-04T17:55:31.681Z,15.93
2023-03-04T17:57:58.416Z,24.45
2023-03-04T18:00:25.391Z,15.35
2023-03-04T18:02:52.036Z,12.18
2023-03-04T18:05:18.800Z,11.43
2023-03-04T18:07:45.472Z,12.45
2023-03-04T18:10:12.439Z,13.15
2023-03-04T18:12:39.158Z,13.13
2023-03-04T18:15:06.445Z,13.23
2023-03-04T18:17:33.104Z,12.47
2023-03-04T18:19:59.921Z,12.57
2023-03-04T18:22:26.652Z,13.45
2023-03-04T18:24:53.553Z,12.77
2023-03-04T18:27:20.315Z,13.95
2023-03-04T18:29:46.989Z,21.90
2023-03-04T18:32:13.851Z,15.68
2023-03-04T18:34:40.708Z,12.75
2023-03-04T18:37:07.397Z,14.65
2023-03-04T18:39:34.008Z,14.32
2023-03-04T18:42:01.108Z,14.00
2023-03-04T18:44:27.754Z,14.18
2023-03-04T18:46:56.697Z,12.95
2023-03-04T18:49:24.119Z,12.02
2023-03-04T18:51:51.726Z,12.80
2023-03-04T18:54:18.402Z,15.45
2023-03-04T18:56:51.392Z,14.45
2023-03-04T18:59:20.348Z,13.63
2023-03-04T19:01:48.081Z,12.70
2023-03-04T19:04:15.939Z,11.75
2023-03-04T19:06:42.945Z,11.60
2023-03-04T19:09:10.622Z,12.32
2023-03-04T19:11:37.448Z,12.50
2023-03-04T19:14:04.602Z,11.65
2023-03-04T19:16:31.485Z,11.70
2023-03-04T19:18:58.293Z,10.82
2023-03-04T19:21:24.914Z,12.85
2023-03-04T19:23:51.532Z,9.40
2023-03-04T19:26:20.373Z,11.32
2023-03-04T19:28:47.075Z,11.07
2023-03-04T19:31:14.013Z,11.43
2023-03-04T19:33:41.055Z,9.93
2023-03-04T19:36:08.987Z,12.07
2023-03-04T19:38:35.948Z,13.63
2023-03-04T19:41:14.630Z,11.18
2023-03-04T19:43:41.474Z,12.95
2023-03-04T19:46:09.659Z,13.50
2023-03-04T19:48:37.882Z,12.68
2023-03-04T19:53:34.620Z,12.88
2023-03-04T19:56:01.665Z,14.07
2023-03-04T19:58:28.574Z,13.00
2023-03-04T20:00:55.333Z,10.68
2023-03-04T20:03:22.208Z,10.85
2023-03-04T20:05:48.923Z,12.07
2023-03-04T20:08:15.603Z,12.45
2023-03-04T20:10:42.319Z,10.45
2023-03-04T20:13:09.911Z,13.10
2023-03-04T20:15:36.703Z,11.98
2023-03-04T20:18:04.471Z,12.32
2023-03-04T20:20:31.411Z,11.90
2023-03-04T20:22:58.667Z,13.73
2023-03-04T20:25:25.535Z,11.70
2023-03-04T20:27:52.252Z,14.23
2023-03-04T20:30:21.356Z,13.00
2023-03-04T20:32:48.080Z,13.40
2023-03-04T20:35:15.066Z,12.90
2023-03-04T20:37:43.036Z,11.65
2023-03-04T20:40:11.360Z,13.95
2023-03-04T20:42:38.104Z,11.73
2023-03-04T20:45:07.866Z,12.15
2023-03-04T20:47:34.803Z,11.05
2023-03-04T20:50:01.551Z,12.60
2023-03-04T20:52:28.252Z,13.90
2023-03-04T20:54:54.921Z,11.65
2023-03-04T20:57:21.608Z,11.63
2023-03-04T20:59:50.009Z,12.52
2023-03-04T21:02:18.849Z,11.00
2023-03-04T21:04:45.735Z,11.60
2023-03-04T21:07:14.259Z,12.25
2023-03-04T21:09:41.001Z,11.45
2023-03-04T21:12:08.094Z,10.20
2023-03-04T21:14:35.443Z,11.10
2023-03-04T21:17:04.543Z,12.55
2023-03-04T21:19:34.279Z,11.05
2023-03-04T21:22:01.819Z,12.38
2023-03-04T21:24:31.722Z,11.63
2023-03-04T21:26:58.571Z,11.75
2023-03-04T21:29:26.465Z,11.65
2023-03-04T21:34:46.289Z,10.80
2023-03-04T21:37:18.564Z,9.95
2023-03-04T21:42:12.096Z,10.27
2023-03-04T21:44:50.113Z,12.45
2023-03-04T21:47:17.183Z,11.57
2023-03-04T21:49:44.258Z,12.52
2023-03-04T21:52:11.046Z,13.77
2023-03-04T21:54:37.889Z,11.65
2023-03-04T21:57:04.770Z,13.18
2023-03-04T21:59:33.198Z,13.60
2023-03-04T22:01:59.844Z,10.63
2023-03-04T22:04:26.682Z,13.32
2023-03-04T22:06:53.444Z,12.98
2023-03-04T22:09:20.352Z,12.23
2023-03-04T22:11:48.048Z,12.77
2023-03-04T22:14:14.844Z,14.48
2023-03-04T22:16:55.490Z,13.73
2023-03-04T22:19:24.493Z,14.50
2023-03-04T22:21:52.881Z,14.00
2023-03-04T22:24:20.368Z,13.93
2023-03-04T22:26:47.121Z,14.95
2023-03-04T22:29:13.927Z,16.13
2023-03-04T22:31:40.665Z,15.45
2023-03-04T22:34:10.637Z,13.75
2023-03-04T22:36:40.058Z,14.70
2023-03-04T22:39:08.894Z,14.25
2023-03-04T22:41:35.701Z,15.18
2023-03-04T22:44:02.549Z,17.33
2023-03-04T22:46:31.477Z,16.40
2023-03-04T22:49:00.649Z,14.00
2023-03-04T22:51:28.497Z,18.20
2023-03-04T22:53:56.110Z,15.38
2023-03-04T22:56:23.005Z,14.23
2023-03-04T22:58:50.212Z,15.25
2023-03-04T23:01:18.725Z,15.07
2023-03-04T23:03:48.260Z,13.73
2023-03-04T23:12:43.841Z,15.45
2023-03-04T23:15:13.310Z,15.60
2023-03-04T23:17:47.430Z,16.70
2023-03-04T23:20:20.896Z,17.67
2023-03-04T23:22:48.985Z,13.45
2023-03-04T23:25:17.928Z,14.60
2023-03-04T23:27:44.663Z,13.25
2023-03-04T23:30:15.941Z,13.73
2023-03-04T23:32:44.584Z,16.13
2023-03-04T23:35:13.176Z,14.00
2023-03-04T23:37:39.892Z,15.23
2023-03-04T23:40:08.078Z,17.92
2023-03-04T23:42:34.719Z,15.43
2023-03-04T23:45:01.450Z,14.48
2023-03-04T23:47:28.272Z,16.35
2023-03-04T23:49:54.963Z,15.15
2023-03-04T23:52:21.664Z,15.50
2023-03-04T23:54:48.312Z,15.85
2023-03-04T23:57:15.031Z,16.92
2023-03-04T23:59:41.750Z,16.00
